This is the latest recevied weather packets stored in our database for station/object K0UND-1. If no packets are shown the sender has not sent any weather packets the latest 10 day(s).
| Time | Temp. | Humidity | Pressure | Rain* | Wind** | Luminosity | Snow |
|---|---|---|---|---|---|---|---|
| 1778043607 | 2.22° C | 55% | 1015.9 hPa | 0 mm | - | - | - |
| 1778040008 | 2.22° C | 55% | 1015.9 hPa | 0 mm | - | - | - |
| 1778036406 | 2.22° C | 55% | 1015.6 hPa | 0 mm | - | - | - |
| 1778032812 | 2.78° C | 52% | 1014.6 hPa | 0 mm | - | - | - |
| 1778025609 | 3.89° C | 48% | 1013.9 hPa | 0 mm | - | - | - |
| 1778022015 | 3.89° C | 48% | 1013.9 hPa | 0 mm | - | - | - |
| 1778018408 | 5° C | 45% | 1013.9 hPa | 0 mm | - | - | - |
| 1778014809 | 5° C | 45% | 1013.5 hPa | 0 mm | - | - | - |
| 1778011205 | 5° C | 42% | 1013.5 hPa | 0 mm | - | - | - |
| 1778007622 | 5° C | 42% | 1012.9 hPa | 0 mm | - | - | - |
| 1778004008 | 3.89° C | 48% | 1012.9 hPa | 0 mm | - | - | - |
| 1778000410 | 2.78° C | 52% | 1012.9 hPa | 0 mm | - | - | - |
| 1777993206 | 1.11° C | 69% | 1012.2 hPa | 0 mm | - | - | - |
| 1777989607 | 1.11° C | 69% | 1011.5 hPa | 0 mm | - | - | - |
| 1777986010 | 0° C | 74% | 1010.8 hPa | 0 mm | - | - | - |
| 1777982418 | 0° C | 80% | 1010.2 hPa | 0 mm | - | - | - |
| 1777978809 | 0° C | 74% | 1009.8 hPa | 0 mm | - | - | - |
| 1777975204 | 0° C | 74% | 1009.5 hPa | 0 mm | - | - | - |
| 1777971608 | 0° C | 74% | 1009.5 hPa | 0 mm | - | - | - |
| 1777968006 | 0° C | 74% | 1009.1 hPa | 0 mm | - | - | - |
| 1777964409 | -1.11° C | 86% | 1008.8 hPa | 0 mm | - | - | - |
| 1777960805 | 0° C | 74% | 1008.8 hPa | 0 mm | - | - | - |
| 1777957207 | 1.11° C | 69% | 1008.8 hPa | 0 mm | - | - | - |
| 1777953608 | 0° C | 80% | 1007.8 hPa | 0 mm | - | - | - |
| 1777946407 | 2.22° C | 75% | 1007.1 hPa | 0.25 mm | - | - | - |
* Rain latest hour (hover to see other rain measurements)
** Current wind speed in m/s (hover to see current wind gust speed)